createdAt,value
2018-09-08T00:00:11.878Z,0.00
2018-09-08T00:01:12.063Z,0.00
2018-09-08T00:02:12.215Z,0.00
2018-09-08T00:03:12.420Z,0.00
2018-09-08T00:04:12.620Z,0.85
2018-09-08T00:05:12.799Z,1.43
2018-09-08T00:06:12.990Z,1.04
2018-09-08T00:07:13.150Z,0.19
2018-09-08T00:08:13.353Z,0.95
2018-09-08T00:09:13.511Z,1.43
2018-09-08T00:10:13.713Z,2.09
2018-09-08T00:11:13.908Z,1.62
2018-09-08T00:12:14.072Z,2.48
2018-09-08T00:13:14.258Z,4.57
2018-09-08T00:14:14.459Z,4.96
2018-09-08T00:15:14.637Z,4.67
2018-09-08T00:16:14.821Z,5.15
2018-09-08T00:17:15.021Z,6.57
2018-09-08T00:18:15.205Z,6.76
2018-09-08T00:19:15.389Z,7.43
2018-09-08T00:20:15.563Z,8.67
2018-09-08T00:21:15.743Z,9.24
2018-09-08T00:22:15.955Z,8.10
2018-09-08T00:23:16.129Z,8.20
2018-09-08T00:24:16.284Z,8.48
2018-09-08T00:25:16.448Z,7.14
2018-09-08T00:26:16.639Z,6.00
2018-09-08T00:27:16.930Z,5.14
2018-09-08T00:28:17.010Z,4.95
2018-09-08T00:29:17.209Z,5.52
2018-09-08T00:30:17.457Z,5.71
2018-09-08T00:31:17.599Z,6.29
2018-09-08T00:32:17.756Z,6.95
2018-09-08T00:33:17.932Z,7.62
2018-09-08T00:34:18.109Z,7.81
2018-09-08T00:35:18.329Z,7.43
2018-09-08T00:36:18.483Z,7.05
2018-09-08T00:37:18.686Z,7.24
2018-09-08T00:38:18.940Z,7.43
2018-09-08T00:39:19.060Z,8.86
2018-09-08T00:40:19.279Z,8.29
2018-09-08T00:41:19.419Z,8.95
2018-09-08T00:42:19.565Z,8.38
2018-09-08T00:43:19.755Z,7.90
2018-09-08T00:44:19.916Z,8.86
2018-09-08T00:45:20.174Z,9.43
2018-09-08T00:46:20.302Z,8.66
2018-09-08T00:47:20.463Z,7.81
2018-09-08T00:48:20.692Z,6.85
2018-09-08T00:49:20.842Z,6.09
2018-09-08T00:50:20.981Z,5.62
2018-09-08T00:51:21.159Z,5.33
2018-09-08T00:52:21.363Z,4.38
2018-09-08T00:53:21.527Z,3.23
2018-09-08T00:54:21.691Z,3.05
2018-09-08T00:55:21.893Z,3.05
2018-09-08T00:56:22.090Z,2.66
2018-09-08T00:57:22.294Z,2.57
2018-09-08T00:58:22.504Z,2.57
2018-09-08T00:59:22.628Z,3.14
2018-09-08T01:00:22.810Z,3.52
2018-09-08T01:01:22.999Z,3.42
2018-09-08T01:02:23.223Z,3.05
2018-09-08T01:03:23.384Z,1.90
2018-09-08T01:04:23.572Z,0.85
2018-09-08T01:05:23.729Z,0.00
2018-09-08T01:06:23.955Z,0.00
2018-09-08T01:07:24.116Z,0.00
2018-09-08T01:08:24.312Z,0.00
2018-09-08T01:09:24.479Z,0.00
2018-09-08T01:10:24.671Z,1.04
2018-09-08T01:11:24.843Z,1.52
2018-09-08T01:12:25.058Z,2.19
2018-09-08T01:13:25.191Z,3.05
2018-09-08T01:14:25.402Z,3.80
2018-09-08T01:15:25.555Z,4.57
2018-09-08T01:16:25.724Z,4.57
2018-09-08T01:17:25.933Z,5.14
2018-09-08T01:18:26.079Z,4.94
2018-09-08T01:19:26.275Z,6.09
2018-09-08T01:20:26.488Z,7.04
2018-09-08T01:21:26.725Z,7.14
2018-09-08T01:22:26.811Z,7.14
2018-09-08T01:23:27.011Z,8.18
2018-09-08T01:24:27.179Z,8.18
2018-09-08T01:25:27.332Z,8.37
2018-09-08T01:26:27.511Z,8.85
2018-09-08T01:27:27.681Z,8.56
2018-09-08T01:28:27.861Z,5.23
2018-09-08T01:29:28.051Z,2.56
2018-09-08T01:30:28.218Z,1.23
2018-09-08T01:31:28.419Z,0.00
2018-09-08T01:32:28.600Z,0.00
2018-09-08T01:33:28.825Z,0.00
2018-09-08T01:34:28.970Z,0.00
2018-09-08T01:35:29.165Z,0.00
2018-09-08T01:36:29.348Z,0.00
2018-09-08T01:37:29.575Z,0.00
2018-09-08T01:38:29.723Z,0.85
2018-09-08T01:39:29.893Z,0.76
2018-09-08T01:40:30.091Z,0.57
2018-09-08T01:41:30.248Z,0.85
2018-09-08T01:42:30.415Z,1.81
2018-09-08T01:43:30.623Z,1.90
2018-09-08T01:44:30.788Z,1.52
2018-09-08T01:45:30.974Z,5.70
2018-09-08T01:46:31.215Z,7.32
2018-09-08T01:47:31.253Z,7.03
2018-09-08T01:48:31.428Z,5.61
2018-09-08T01:49:31.613Z,5.51
2018-09-08T01:50:31.797Z,3.52
2018-09-08T01:51:32.040Z,2.75
2018-09-08T01:52:32.157Z,1.80
2018-09-08T01:53:32.321Z,1.80
2018-09-08T01:54:32.494Z,1.90
2018-09-08T01:55:32.695Z,0.85
2018-09-08T01:56:32.874Z,0.00
2018-09-08T01:57:33.047Z,0.00
2018-09-08T01:58:33.221Z,0.00
2018-09-08T01:59:33.419Z,0.00
2018-09-08T02:00:33.572Z,0.00
2018-09-08T02:01:33.782Z,0.00
2018-09-08T02:02:33.959Z,0.00
2018-09-08T02:03:34.144Z,0.00
2018-09-08T02:04:34.270Z,0.00
2018-09-08T02:05:34.496Z,0.00
2018-09-08T02:06:34.681Z,0.00
2018-09-08T02:07:34.856Z,0.00
2018-09-08T02:08:34.999Z,0.00
2018-09-08T02:09:35.237Z,0.00
2018-09-08T02:10:35.431Z,0.00
2018-09-08T02:11:35.624Z,0.00
2018-09-08T02:12:35.776Z,0.00
2018-09-08T02:13:35.964Z,0.00
2018-09-08T02:14:36.164Z,0.00
2018-09-08T02:15:36.332Z,0.00
2018-09-08T02:16:36.523Z,0.00
2018-09-08T02:17:36.715Z,0.00
2018-09-08T02:18:36.932Z,0.00
2018-09-08T02:19:37.095Z,0.00
2018-09-08T02:20:37.556Z,0.00
2018-09-08T02:21:37.483Z,0.00
2018-09-08T02:22:37.671Z,0.00
2018-09-08T02:23:37.843Z,0.00
2018-09-08T02:24:38.009Z,0.00
2018-09-08T02:25:38.215Z,0.00
2018-09-08T02:26:38.387Z,0.00
2018-09-08T02:27:38.608Z,0.00
2018-09-08T02:28:38.735Z,0.00
2018-09-08T02:29:38.917Z,0.00
2018-09-08T02:30:39.282Z,0.00
2018-09-08T02:31:39.321Z,0.00
2018-09-08T02:32:39.493Z,0.00
2018-09-08T02:33:39.661Z,0.00
2018-09-08T02:34:39.817Z,0.00
2018-09-08T02:35:39.996Z,0.00
2018-09-08T02:36:40.176Z,0.00
2018-09-08T02:37:40.465Z,0.00
2018-09-08T02:38:40.627Z,0.00
2018-09-08T02:39:40.798Z,0.00
2018-09-08T02:40:40.987Z,0.00
2018-09-08T02:41:41.200Z,0.00
2018-09-08T02:42:41.353Z,0.00
2018-09-08T02:43:41.510Z,0.00
2018-09-08T02:44:41.769Z,0.00
2018-09-08T02:45:41.855Z,0.00
2018-09-08T02:46:42.254Z,0.00
2018-09-08T02:47:42.240Z,0.00
2018-09-08T02:48:42.426Z,0.00
2018-09-08T02:49:42.625Z,0.00
2018-09-08T02:50:42.844Z,0.00
2018-09-08T02:51:42.977Z,0.00
2018-09-08T02:52:43.291Z,0.00
2018-09-08T02:53:43.328Z,0.00
2018-09-08T02:54:43.541Z,0.00
2018-09-08T02:55:43.701Z,0.00
2018-09-08T02:56:43.887Z,0.00
2018-09-08T02:57:45.031Z,0.00
2018-09-08T02:58:44.203Z,0.00
2018-09-08T02:59:44.408Z,0.00
2018-09-08T03:00:44.551Z,0.00
2018-09-08T03:01:44.842Z,0.00
2018-09-08T03:02:44.911Z,0.00
2018-09-08T03:03:45.206Z,0.00
2018-09-08T03:04:45.269Z,0.00
2018-09-08T03:05:45.460Z,0.00
2018-09-08T03:06:45.611Z,0.00
2018-09-08T03:07:45.940Z,0.00
2018-09-08T03:08:45.990Z,0.00
2018-09-08T03:09:46.162Z,0.00
2018-09-08T03:10:46.468Z,0.00
2018-09-08T03:11:46.618Z,0.00
2018-09-08T03:12:46.731Z,0.00
2018-09-08T03:13:46.924Z,0.00
2018-09-08T03:14:47.092Z,0.00
2018-09-08T03:15:47.355Z,0.00
2018-09-08T03:16:47.442Z,0.00
2018-09-08T03:17:47.641Z,0.00
2018-09-08T03:18:47.853Z,0.00
2018-09-08T03:19:48.025Z,0.00
2018-09-08T03:20:48.242Z,0.00
2018-09-08T03:21:48.404Z,0.00
2018-09-08T03:22:48.785Z,0.00
2018-09-08T03:23:48.752Z,0.00
2018-09-08T03:24:48.935Z,0.00
2018-09-08T03:25:49.110Z,0.00
2018-09-08T03:26:49.341Z,0.00
2018-09-08T03:27:49.546Z,0.00
2018-09-08T03:28:49.761Z,0.00
2018-09-08T03:29:49.930Z,0.00
2018-09-08T03:30:50.212Z,0.00
2018-09-08T03:31:50.318Z,0.00
2018-09-08T03:32:50.510Z,0.00
2018-09-08T03:33:50.831Z,0.00
2018-09-08T03:34:50.867Z,0.00
2018-09-08T03:35:51.107Z,0.00
2018-09-08T03:36:51.249Z,0.00
2018-09-08T03:37:51.387Z,0.00
2018-09-08T03:38:51.609Z,0.00
2018-09-08T03:39:51.741Z,0.00
2018-09-08T03:40:51.912Z,0.00
2018-09-08T03:41:52.102Z,0.00
2018-09-08T03:42:52.309Z,0.00
2018-09-08T03:43:52.503Z,0.00
2018-09-08T03:44:52.695Z,0.00
2018-09-08T03:45:52.886Z,0.00
2018-09-08T03:46:53.160Z,0.00
2018-09-08T03:47:53.289Z,0.00
2018-09-08T03:48:53.595Z,0.00
2018-09-08T03:49:53.674Z,0.00
2018-09-08T03:50:53.921Z,0.00
2018-09-08T03:51:54.087Z,0.00
2018-09-08T03:52:54.201Z,0.00
2018-09-08T03:53:54.410Z,0.00
2018-09-08T03:54:54.626Z,0.00
2018-09-08T03:55:54.778Z,0.00
2018-09-08T03:56:55.295Z,0.00
2018-09-08T03:57:55.132Z,0.00
2018-09-08T03:58:55.340Z,0.00
2018-09-08T03:59:55.824Z,0.00
2018-09-08T04:00:55.692Z,0.00
2018-09-08T04:01:55.830Z,0.00
2018-09-08T04:02:56.104Z,0.00
2018-09-08T04:03:56.268Z,0.00
2018-09-08T04:04:56.308Z,0.00
2018-09-08T04:05:56.475Z,0.00
2018-09-08T04:06:56.698Z,0.00
2018-09-08T04:07:56.936Z,0.00
2018-09-08T04:08:57.141Z,0.00
2018-09-08T04:09:57.266Z,0.00
2018-09-08T04:10:57.445Z,0.00
2018-09-08T04:11:58.560Z,0.00
2018-09-08T04:12:57.983Z,0.00
2018-09-08T04:13:58.260Z,0.00
2018-09-08T04:14:58.980Z,0.00
2018-09-08T04:15:58.481Z,0.00
2018-09-08T04:16:59.123Z,0.00
2018-09-08T04:17:59.059Z,0.00
2018-09-08T04:18:58.981Z,0.00
2018-09-08T04:19:59.127Z,0.00
2018-09-08T04:20:59.303Z,0.00
2018-09-08T04:21:59.472Z,0.00
2018-09-08T04:22:59.685Z,0.00
2018-09-08T04:23:59.870Z,0.00
2018-09-08T04:25:00.070Z,0.00
2018-09-08T04:26:00.276Z,0.00
2018-09-08T04:27:00.472Z,0.00
2018-09-08T04:28:00.674Z,0.00
2018-09-08T04:29:00.778Z,0.00
2018-09-08T04:30:00.998Z,0.00
2018-09-08T04:31:01.133Z,0.00
2018-09-08T04:32:01.350Z,0.00
2018-09-08T04:33:01.514Z,0.00
2018-09-08T04:34:01.664Z,0.00
2018-09-08T04:35:01.936Z,0.00
2018-09-08T04:36:02.078Z,0.00
2018-09-08T04:37:02.299Z,0.00
2018-09-08T04:38:02.438Z,0.00
2018-09-08T04:39:02.639Z,0.00
2018-09-08T04:40:02.792Z,0.00
2018-09-08T04:41:03.020Z,0.00
2018-09-08T04:42:03.104Z,0.00
2018-09-08T04:43:03.299Z,0.00
2018-09-08T04:44:03.484Z,0.00
2018-09-08T04:45:03.686Z,0.00
2018-09-08T04:46:03.794Z,0.00
2018-09-08T04:47:04.029Z,0.00
2018-09-08T04:48:04.261Z,0.00
2018-09-08T04:49:04.452Z,0.00
2018-09-08T04:50:04.585Z,0.00
2018-09-08T04:51:04.825Z,0.00
2018-09-08T04:52:05.009Z,0.00
2018-09-08T04:53:05.183Z,0.00
2018-09-08T04:54:05.389Z,0.00
2018-09-08T04:55:05.686Z,0.00
2018-09-08T04:56:05.807Z,0.00
2018-09-08T04:57:05.985Z,0.00
2018-09-08T04:58:06.261Z,0.00
2018-09-08T04:59:06.452Z,0.00
2018-09-08T05:00:06.550Z,0.00
2018-09-08T05:01:06.789Z,0.00
2018-09-08T05:02:06.906Z,0.00
2018-09-08T05:03:07.096Z,0.00
2018-09-08T05:04:07.232Z,0.00
2018-09-08T05:05:07.431Z,0.00
2018-09-08T05:06:07.627Z,0.00
2018-09-08T05:07:07.888Z,0.00
2018-09-08T05:08:08.101Z,0.00
2018-09-08T05:09:08.288Z,0.00
2018-09-08T05:10:08.378Z,0.00
2018-09-08T05:11:08.584Z,0.00
2018-09-08T05:12:08.776Z,0.00
2018-09-08T05:13:08.965Z,0.00
2018-09-08T05:14:09.120Z,0.00
2018-09-08T05:15:09.305Z,0.00
2018-09-08T05:16:09.459Z,0.00
2018-09-08T05:17:10.506Z,0.00
2018-09-08T05:18:09.865Z,0.00
2018-09-08T05:19:10.069Z,0.00
2018-09-08T05:20:10.302Z,0.00
2018-09-08T05:21:10.438Z,0.00
2018-09-08T05:22:10.643Z,0.00
2018-09-08T05:23:10.783Z,0.00
2018-09-08T05:24:10.945Z,0.00
2018-09-08T05:25:11.166Z,0.00
2018-09-08T05:26:11.425Z,0.00
2018-09-08T05:27:11.553Z,0.00
2018-09-08T05:28:11.726Z,0.00
2018-09-08T05:29:11.994Z,0.00
2018-09-08T05:30:12.099Z,0.00
2018-09-08T05:31:12.326Z,0.00
2018-09-08T05:32:12.423Z,0.00
2018-09-08T05:33:12.608Z,0.00
2018-09-08T05:34:12.845Z,0.00
2018-09-08T05:35:12.958Z,0.00
2018-09-08T05:36:13.149Z,0.00
2018-09-08T05:37:13.454Z,0.00
2018-09-08T05:38:13.512Z,0.00
2018-09-08T05:39:13.683Z,0.00
2018-09-08T05:40:13.853Z,0.00
2018-09-08T05:41:14.120Z,0.00
2018-09-08T05:42:14.219Z,0.00
2018-09-08T05:43:14.461Z,0.00
2018-09-08T05:44:14.578Z,0.00
2018-09-08T05:45:14.744Z,0.00
2018-09-08T05:46:14.948Z,0.00
2018-09-08T05:47:15.107Z,0.00
2018-09-08T05:48:15.319Z,0.00
2018-09-08T05:49:15.555Z,0.00
2018-09-08T05:50:15.700Z,0.00
2018-09-08T05:51:15.958Z,0.00
2018-09-08T05:52:16.084Z,0.00
2018-09-08T05:53:16.346Z,0.00
2018-09-08T05:54:16.456Z,0.00
2018-09-08T05:55:16.669Z,0.00
2018-09-08T05:56:16.840Z,0.00
2018-09-08T05:57:17.040Z,0.00
2018-09-08T05:58:17.220Z,0.00
2018-09-08T05:59:17.405Z,0.00
2018-09-08T06:00:17.588Z,0.00
2018-09-08T06:01:17.758Z,0.00
2018-09-08T06:02:17.967Z,0.00
2018-09-08T06:03:18.128Z,0.00
2018-09-08T06:04:18.320Z,0.00
2018-09-08T06:05:18.508Z,0.00
2018-09-08T06:06:18.662Z,0.00
2018-09-08T06:07:18.875Z,0.00
2018-09-08T06:08:19.052Z,0.00
2018-09-08T06:09:19.231Z,0.00
2018-09-08T06:10:19.517Z,0.00
2018-09-08T06:11:19.585Z,0.00
2018-09-08T06:12:19.776Z,0.00
2018-09-08T06:13:19.962Z,0.00
2018-09-08T06:14:20.111Z,0.00
2018-09-08T06:15:20.302Z,0.00
2018-09-08T06:16:20.472Z,0.00
2018-09-08T06:17:20.671Z,0.00
2018-09-08T06:18:20.932Z,0.00
2018-09-08T06:19:21.040Z,0.00
2018-09-08T06:20:21.225Z,0.00
2018-09-08T06:21:21.410Z,3.23
2018-09-08T06:22:21.590Z,3.90
2018-09-08T06:23:21.775Z,6.09
2018-09-08T06:24:21.999Z,6.48
2018-09-08T06:25:22.208Z,4.86
2018-09-08T06:26:23.037Z,7.71
2018-09-08T06:27:22.502Z,8.20
2018-09-08T06:28:22.667Z,9.72
2018-09-08T06:29:22.845Z,15.53
2018-09-08T06:30:23.003Z,21.74
2018-09-08T06:31:23.192Z,23.93
2018-09-08T06:32:23.371Z,38.62
2018-09-08T06:33:23.606Z,52.23
2018-09-08T06:34:23.730Z,47.58
2018-09-08T06:35:23.995Z,43.58
2018-09-08T06:36:24.121Z,38.91
2018-09-08T06:37:24.304Z,52.55
2018-09-08T06:38:24.499Z,59.89
2018-09-08T06:39:24.686Z,63.80
2018-09-08T06:40:24.872Z,66.56
2018-09-08T06:41:25.062Z,65.67
2018-09-08T06:42:25.243Z,62.62
2018-09-08T06:43:25.425Z,60.72
2018-09-08T06:44:25.599Z,58.21
2018-09-08T06:45:25.833Z,54.21
2018-09-08T06:46:25.961Z,52.30
2018-09-08T06:47:26.162Z,50.49
2018-09-08T06:48:26.332Z,47.32
2018-09-08T06:49:26.532Z,42.66
2018-09-08T06:50:26.739Z,37.52
2018-09-08T06:51:26.910Z,33.90
2018-09-08T06:52:27.119Z,31.04
2018-09-08T06:53:27.265Z,29.23
2018-09-08T06:54:27.439Z,24.28
2018-09-08T06:55:27.653Z,20.00
2018-09-08T06:56:27.808Z,22.38
2018-09-08T06:57:27.988Z,28.19
2018-09-08T06:58:28.208Z,29.23
2018-09-08T06:59:28.336Z,28.56
2018-09-08T07:00:28.550Z,26.26
2018-09-08T07:01:28.743Z,22.84
2018-09-08T07:02:28.902Z,17.51
2018-09-08T07:03:29.157Z,14.09
2018-09-08T07:04:29.232Z,11.80
2018-09-08T07:05:29.439Z,12.19
2018-09-08T07:06:29.642Z,13.52
2018-09-08T07:07:29.799Z,12.38
2018-09-08T07:08:29.980Z,12.76
2018-09-08T07:09:30.205Z,14.37
2018-09-08T07:10:30.345Z,16.56
2018-09-08T07:11:30.539Z,17.72
2018-09-08T07:12:30.695Z,19.72
2018-09-08T07:13:30.876Z,18.77
2018-09-08T07:14:31.051Z,17.63
2018-09-08T07:15:31.247Z,27.15
2018-09-08T07:16:31.443Z,28.77
2018-09-08T07:17:31.666Z,26.67
2018-09-08T07:18:31.802Z,28.31
2018-09-08T07:19:32.046Z,28.31
2018-09-08T07:20:32.179Z,31.64
2018-09-08T07:21:32.370Z,31.64
2018-09-08T07:22:32.601Z,30.71
2018-09-08T07:23:32.749Z,32.04
2018-09-08T07:24:32.900Z,33.37
2018-09-08T07:25:33.125Z,30.23
2018-09-08T07:26:33.277Z,28.61
2018-09-08T07:27:33.458Z,36.43
2018-09-08T07:28:33.644Z,37.00
2018-09-08T07:29:33.830Z,33.95
2018-09-08T07:30:34.011Z,34.23
2018-09-08T07:31:34.212Z,29.38
2018-09-08T07:32:34.414Z,29.77
2018-09-08T07:33:34.585Z,42.10
2018-09-08T07:34:34.800Z,32.07
2018-09-08T07:35:35.353Z,46.70
2018-09-08T07:38:19.412Z,52.84
2018-09-08T07:39:19.693Z,57.26
2018-09-08T07:40:20.995Z,71.99
2018-09-08T07:41:20.605Z,74.90
2018-09-08T07:42:20.066Z,80.35
2018-09-08T07:43:20.208Z,81.68
2018-09-08T07:44:20.263Z,81.30
2018-09-08T07:45:21.201Z,84.94
2018-09-08T07:46:20.991Z,84.75
2018-09-08T07:47:22.242Z,82.59
2018-09-08T07:48:21.061Z,92.11
2018-09-08T07:49:21.307Z,94.60
2018-09-08T07:50:21.464Z,96.61
2018-09-08T07:51:21.591Z,96.89
2018-09-08T07:52:21.780Z,96.13
2018-09-08T07:53:22.752Z,96.80
2018-09-08T07:54:22.186Z,94.89
2018-09-08T07:55:22.463Z,97.47
2018-09-08T07:56:23.001Z,97.90
2018-09-08T07:57:22.850Z,96.66
2018-09-08T07:58:22.847Z,96.42
2018-09-08T07:59:23.069Z,97.85
2018-09-08T08:00:23.191Z,98.62
2018-09-08T08:01:23.441Z,98.14
2018-09-08T08:02:23.689Z,96.27
2018-09-08T08:03:23.783Z,99.99
2018-09-08T08:04:24.791Z,96.84
2018-09-08T08:05:24.243Z,99.99
2018-09-08T08:06:24.685Z,99.99
2018-09-08T08:07:24.528Z,95.94
2018-09-08T08:08:24.774Z,99.99
2018-09-08T08:09:25.808Z,99.99
2018-09-08T08:10:25.086Z,99.99
2018-09-08T08:11:25.390Z,99.99
2018-09-08T08:12:25.512Z,99.99
2018-09-08T08:13:25.692Z,99.99
2018-09-08T08:14:26.023Z,99.99
2018-09-08T08:15:26.103Z,99.99
2018-09-08T08:16:27.234Z,99.99
2018-09-08T08:17:26.472Z,99.99
2018-09-08T08:18:26.664Z,99.99
2018-09-08T08:19:26.859Z,99.99
2018-09-08T08:20:27.092Z,99.99
2018-09-08T08:21:27.268Z,99.99
2018-09-08T08:22:27.441Z,99.99
2018-09-08T08:23:27.670Z,99.99
2018-09-08T08:24:27.823Z,99.99
2018-09-08T08:25:28.006Z,99.99
2018-09-08T08:26:28.195Z,99.99
2018-09-08T08:27:28.373Z,99.99
2018-09-08T08:28:28.546Z,99.99
2018-09-08T08:29:28.750Z,99.99
2018-09-08T08:30:28.927Z,99.99
2018-09-08T08:31:29.106Z,99.99
2018-09-08T08:32:29.295Z,99.99
2018-09-08T08:33:29.566Z,99.99
2018-09-08T08:34:29.714Z,99.99
2018-09-08T08:35:29.872Z,99.99
2018-09-08T08:36:30.030Z,99.99
2018-09-08T08:37:30.265Z,99.99
2018-09-08T08:38:30.506Z,99.99
2018-09-08T08:39:30.620Z,99.99
2018-09-08T08:40:30.821Z,99.99
2018-09-08T08:41:31.019Z,99.99
2018-09-08T08:42:31.230Z,99.99
2018-09-08T08:43:31.419Z,99.99
2018-09-08T08:44:31.608Z,99.99
2018-09-08T08:45:31.794Z,99.99
2018-09-08T08:46:31.982Z,99.99
2018-09-08T08:47:32.163Z,99.99
2018-09-08T08:48:32.352Z,99.99
2018-09-08T08:49:32.610Z,99.99
2018-09-08T08:50:32.696Z,99.99
2018-09-08T08:51:32.897Z,99.99
2018-09-08T08:52:33.141Z,99.99
2018-09-08T08:53:33.282Z,99.99
2018-09-08T08:54:33.441Z,99.99
2018-09-08T08:55:33.646Z,99.99
2018-09-08T08:56:33.822Z,99.99
2018-09-08T08:57:34.012Z,99.99
2018-09-08T08:58:34.257Z,99.99
2018-09-08T08:59:34.380Z,99.99
2018-09-08T09:00:34.519Z,99.99
2018-09-08T09:01:34.704Z,97.71
2018-09-08T09:02:34.870Z,98.19
2018-09-08T09:03:35.113Z,98.29
2018-09-08T09:04:35.251Z,99.25
2018-09-08T09:05:35.464Z,99.99
2018-09-08T09:06:35.613Z,99.99
2018-09-08T09:07:36.229Z,99.99
2018-09-08T09:08:36.382Z,99.99
2018-09-08T09:09:36.170Z,99.99
2018-09-08T09:10:36.384Z,97.66
2018-09-08T09:11:36.638Z,95.17
2018-09-08T09:12:36.992Z,93.25
2018-09-08T09:13:37.080Z,95.45
2018-09-08T09:14:37.434Z,96.13
2018-09-08T09:15:37.379Z,99.20
2018-09-08T09:16:37.575Z,95.94
2018-09-08T09:17:37.794Z,93.49
2018-09-08T09:18:38.384Z,94.78
2018-09-08T09:19:38.145Z,95.17
2018-09-08T09:20:38.341Z,93.15
2018-09-08T09:21:38.556Z,91.99
2018-09-08T09:22:38.736Z,90.36
2018-09-08T09:23:38.918Z,92.09
2018-09-08T09:24:39.517Z,90.99
2018-09-08T09:25:39.272Z,90.60
2018-09-08T09:26:39.472Z,89.12
2018-09-08T09:27:39.668Z,92.62
2018-09-08T09:28:39.924Z,92.72
2018-09-08T09:29:40.102Z,91.85
2018-09-08T09:30:40.255Z,94.16
2018-09-08T09:31:40.420Z,94.06
2018-09-08T09:32:40.678Z,91.90
2018-09-08T09:33:40.880Z,93.58
2018-09-08T09:34:41.015Z,93.10
2018-09-08T09:35:41.209Z,93.49
2018-09-08T09:36:41.424Z,93.01
2018-09-08T09:37:41.596Z,93.49
2018-09-08T09:38:41.802Z,93.87
2018-09-08T09:39:41.983Z,91.71
2018-09-08T09:40:42.216Z,92.10
2018-09-08T09:41:42.366Z,91.23
2018-09-08T09:42:42.574Z,90.08
2018-09-08T09:43:42.819Z,92.67
2018-09-08T09:44:42.908Z,93.29
2018-09-08T09:45:43.132Z,91.61
2018-09-08T09:46:43.309Z,93.10
2018-09-08T09:47:43.484Z,93.19
2018-09-08T09:48:43.705Z,92.33
2018-09-08T09:49:43.860Z,92.00
2018-09-08T09:50:44.057Z,93.49
2018-09-08T09:51:44.262Z,93.58
2018-09-08T09:52:44.486Z,91.18
2018-09-08T09:53:44.705Z,93.58
2018-09-08T09:54:44.782Z,91.85
2018-09-08T09:55:44.968Z,92.05
2018-09-08T09:56:45.201Z,90.12
2018-09-08T09:57:45.372Z,90.51
2018-09-08T09:58:45.546Z,93.58
2018-09-08T09:59:45.791Z,90.65
2018-09-08T10:00:45.910Z,87.52
2018-09-08T10:01:46.111Z,86.42
2018-09-08T10:02:46.309Z,92.33
2018-09-08T10:03:46.481Z,91.46
2018-09-08T10:04:46.694Z,90.31
2018-09-08T10:05:46.966Z,89.01
2018-09-08T10:06:47.111Z,89.40
2018-09-08T10:07:47.319Z,91.32
2018-09-08T10:08:47.481Z,91.13
2018-09-08T10:09:47.652Z,91.47
2018-09-08T10:10:47.831Z,90.99
2018-09-08T10:11:48.025Z,91.56
2018-09-08T10:12:48.195Z,91.85
2018-09-08T10:13:48.411Z,92.19
2018-09-08T10:14:48.590Z,92.13
2018-09-08T10:15:48.779Z,89.92
2018-09-08T10:16:48.981Z,90.36
2018-09-08T10:17:49.233Z,89.40
2018-09-08T10:18:49.371Z,89.88
2018-09-08T10:19:49.566Z,87.86
2018-09-08T10:20:49.745Z,90.26
2018-09-08T10:21:49.976Z,89.21
2018-09-08T10:22:50.104Z,88.44
2018-09-08T10:24:04.341Z,86.27
2018-09-08T10:24:50.485Z,86.42
2018-09-08T10:25:50.734Z,85.75
2018-09-08T10:26:50.881Z,86.71
2018-09-08T10:27:51.072Z,87.29
2018-09-08T10:28:51.265Z,85.84
2018-09-08T10:29:51.895Z,86.52
2018-09-08T10:30:51.640Z,86.75
2018-09-08T10:31:52.153Z,87.13
2018-09-08T10:32:52.037Z,87.42
2018-09-08T10:33:52.217Z,86.51
2018-09-08T10:34:52.533Z,83.33
2018-09-08T10:35:52.613Z,83.81
2018-09-08T10:36:52.819Z,84.16
2018-09-08T10:37:53.019Z,86.02
2018-09-08T10:38:53.193Z,83.42
2018-09-08T10:39:53.395Z,83.42
2018-09-08T10:40:53.598Z,81.50
2018-09-08T10:41:53.817Z,83.23
2018-09-08T10:42:53.994Z,83.33
2018-09-08T10:43:54.187Z,81.79
2018-09-08T10:44:54.405Z,81.12
2018-09-08T10:45:54.582Z,81.21
2018-09-08T10:46:54.752Z,81.98
2018-09-08T10:47:54.937Z,82.56
2018-09-08T10:48:55.129Z,80.68
2018-09-08T10:49:55.320Z,79.33
2018-09-08T10:50:55.628Z,80.48
2018-09-08T10:51:55.688Z,80.62
2018-09-08T10:52:55.867Z,78.40
2018-09-08T10:53:56.075Z,80.52
2018-09-08T10:54:56.427Z,80.14
2018-09-08T10:55:56.436Z,81.68
2018-09-08T10:56:56.638Z,80.38
2018-09-08T10:57:56.957Z,79.90
2018-09-08T10:58:57.039Z,79.05
2018-09-08T10:59:57.219Z,78.96
2018-09-08T11:00:57.396Z,81.07
2018-09-08T11:01:57.720Z,81.07
2018-09-08T11:02:57.772Z,78.96
2018-09-08T11:03:57.924Z,78.28
2018-09-08T11:04:58.114Z,77.90
2018-09-08T11:05:58.303Z,79.38
2018-09-08T11:06:58.538Z,77.75
2018-09-08T11:07:58.769Z,76.26
2018-09-08T11:08:58.833Z,76.40
2018-09-08T11:09:59.018Z,79.10
2018-09-08T11:10:59.202Z,81.40
2018-09-08T11:11:59.396Z,81.21
2018-09-08T11:12:59.664Z,82.79
2018-09-08T11:13:59.771Z,81.16
2018-09-08T11:14:59.999Z,79.13
2018-09-08T11:16:00.222Z,77.31
2018-09-08T11:17:00.372Z,77.50
2018-09-08T11:18:00.654Z,77.11
2018-09-08T11:19:00.728Z,78.75
2018-09-08T11:20:00.898Z,79.23
2018-09-08T11:21:01.095Z,78.36
2018-09-08T11:22:01.265Z,81.93
2018-09-08T11:23:01.491Z,82.12
2018-09-08T11:24:01.685Z,78.17
2018-09-08T11:25:01.847Z,79.00
2018-09-08T11:26:02.088Z,78.81
2018-09-08T11:27:02.218Z,79.19
2018-09-08T11:28:02.401Z,78.46
2018-09-08T11:29:02.592Z,78.56
2018-09-08T11:30:02.751Z,80.58
2018-09-08T11:31:02.997Z,79.33
2018-09-08T11:32:03.159Z,77.98
2018-09-08T11:33:03.323Z,78.27
2018-09-08T11:34:03.523Z,80.10
2018-09-08T11:35:03.737Z,79.81
2018-09-08T11:36:03.926Z,77.98
2018-09-08T11:37:04.094Z,74.80
2018-09-08T11:38:04.287Z,76.82
2018-09-08T11:39:04.452Z,76.34
2018-09-08T11:40:04.640Z,75.76
2018-09-08T11:41:04.992Z,76.31
2018-09-08T11:42:05.088Z,77.94
2018-09-08T11:43:05.242Z,75.63
2018-09-08T11:44:05.436Z,75.63
2018-09-08T11:45:05.714Z,75.96
2018-09-08T11:46:05.830Z,77.88
2018-09-08T11:47:06.037Z,76.82
2018-09-08T11:48:06.231Z,77.01
2018-09-08T11:49:06.445Z,76.15
2018-09-08T11:50:06.607Z,74.99
2018-09-08T11:51:06.813Z,76.25
2018-09-08T11:52:06.978Z,75.03
2018-09-08T11:53:07.141Z,74.36
2018-09-08T11:54:07.377Z,73.68
2018-09-08T11:55:07.554Z,72.63
2018-09-08T11:56:07.696Z,72.53
2018-09-08T11:57:07.884Z,71.18
2018-09-08T11:58:08.078Z,71.28
2018-09-08T11:59:08.328Z,72.56
2018-09-08T12:00:08.464Z,73.82
2018-09-08T12:01:08.767Z,72.99
2018-09-08T12:02:08.941Z,70.76
2018-09-08T12:03:09.352Z,72.63
2018-09-08T12:04:09.234Z,71.86
2018-09-08T12:05:09.414Z,68.43
2018-09-08T12:06:09.588Z,66.49
2018-09-08T12:07:09.780Z,66.94
2018-09-08T12:08:10.196Z,68.01
2018-09-08T12:09:10.216Z,72.15
2018-09-08T12:10:10.391Z,68.10
2018-09-08T12:11:10.638Z,67.81
2018-09-08T12:12:10.763Z,68.68
2018-09-08T12:13:10.958Z,69.07
2018-09-08T12:14:11.138Z,68.19
2018-09-08T12:15:11.323Z,67.04
2018-09-08T12:16:11.882Z,68.39
2018-09-08T12:17:11.742Z,67.14
2018-09-08T12:18:11.870Z,67.97
2018-09-08T12:19:12.145Z,66.52
2018-09-08T12:20:12.266Z,65.37
2018-09-08T12:21:12.404Z,65.33
2018-09-08T12:22:12.636Z,65.43
2018-09-08T12:23:12.794Z,70.28
2018-09-08T12:24:12.970Z,67.97
2018-09-08T12:25:13.162Z,70.19
2018-09-08T12:26:13.380Z,72.02
2018-09-08T12:27:13.542Z,72.69
2018-09-08T12:28:13.729Z,71.15
2018-09-08T12:29:13.942Z,71.92
2018-09-08T12:30:14.100Z,69.80
2018-09-08T12:31:15.109Z,73.21
2018-09-08T12:32:14.592Z,69.55
2018-09-08T12:33:14.687Z,69.74
2018-09-08T12:34:14.872Z,68.35
2018-09-08T12:35:15.076Z,68.42
2018-09-08T12:36:15.245Z,68.99
2018-09-08T12:37:15.619Z,69.23
2018-09-08T12:38:15.655Z,70.28
2018-09-08T12:39:15.840Z,69.03
2018-09-08T12:40:16.068Z,67.00
2018-09-08T12:41:16.205Z,67.84
2018-09-08T12:42:16.397Z,68.93
2018-09-08T12:43:16.606Z,67.78
2018-09-08T12:44:16.850Z,67.30
2018-09-08T12:45:16.985Z,66.04
2018-09-08T12:46:17.182Z,66.62
2018-09-08T12:47:17.428Z,66.27
2018-09-08T12:48:17.577Z,65.11
2018-09-08T12:49:17.815Z,64.69
2018-09-08T12:50:17.983Z,65.37
2018-09-08T12:51:18.171Z,65.88
2018-09-08T12:52:18.386Z,65.20
2018-09-08T12:53:18.611Z,64.34
2018-09-08T12:54:18.810Z,64.43
2018-09-08T12:55:18.967Z,65.30
2018-09-08T12:56:19.121Z,65.40
2018-09-08T12:57:19.341Z,65.27
2018-09-08T12:58:19.570Z,67.20
2018-09-08T12:59:19.749Z,65.59
2018-09-08T13:00:19.945Z,67.81
2018-09-08T13:01:20.092Z,67.14
2018-09-08T13:02:20.337Z,65.50
2018-09-08T13:03:20.535Z,65.98
2018-09-08T13:04:20.694Z,65.30
2018-09-08T13:05:20.852Z,66.66
2018-09-08T13:06:21.063Z,65.95
2018-09-08T13:07:21.238Z,65.50
2018-09-08T13:08:21.414Z,64.92
2018-09-08T13:09:21.604Z,66.17